Time;durP1;ratioP1;P1;durP2;ratioP2;P2;SDS_P1;SDS_P2;PMS_P1;PMS_P2;Temp;Humidity;BMP_temperature;BMP_pressure;BME280_temperature;BME280_humidity;BME280_pressure;Samples;Min_cycle;Max_cycle;Signal;HPM_P1;HPM_P2
2023/02/13 00:00:13;;;;;;;15.17;11.30;;;11.40;99.90;;;;;;4958147;28;20179;-74
2023/02/13 00:02:39;;;;;;;15.40;11.73;;;11.30;99.90;;;;;;4975896;28;20610;-73
2023/02/13 00:05:05;;;;;;;14.60;10.20;;;11.30;99.90;;;;;;4975320;28;20207;-74
2023/02/13 00:07:31;;;;;;;13.88;9.40;;;11.30;99.90;;;;;;4976241;28;20813;-74
2023/02/13 00:09:56;;;;;;;12.10;9.23;;;11.30;99.90;;;;;;4976023;28;20175;-74
2023/02/13 00:12:22;;;;;;;14.37;10.20;;;11.30;99.90;;;;;;4974751;28;20182;-75
2023/02/13 00:14:48;;;;;;;14.60;9.80;;;11.30;99.90;;;;;;4979407;28;20672;-73
2023/02/13 00:17:13;;;;;;;13.97;10.93;;;11.30;99.90;;;;;;4973933;28;20196;-73
2023/02/13 00:19:39;;;;;;;11.57;8.40;;;11.40;99.90;;;;;;4958430;28;20674;-74
2023/02/13 00:22:05;;;;;;;17.30;12.37;;;11.30;99.90;;;;;;4942097;28;20176;-74
2023/02/13 00:24:31;;;;;;;14.47;11.03;;;11.30;99.90;;;;;;4974553;28;20211;-74
2023/02/13 00:26:56;;;;;;;12.40;10.63;;;11.30;99.90;;;;;;4975389;28;20618;-74
2023/02/13 00:29:22;;;;;;;12.07;10.00;;;11.30;99.90;;;;;;4975620;28;20174;-74
2023/02/13 00:31:48;;;;;;;9.80;7.83;;;11.30;99.90;;;;;;4942087;28;20620;-74
2023/02/13 00:34:13;;;;;;;12.03;9.57;;;11.30;99.90;;;;;;4958724;28;20176;-74
2023/02/13 00:36:39;;;;;;;14.00;9.60;;;11.30;99.90;;;;;;4975580;28;20191;-74
2023/02/13 00:39:04;;;;;;;12.93;10.10;;;11.30;99.90;;;;;;4959111;28;20186;-74
2023/02/13 00:41:30;;;;;;;14.97;10.00;;;11.30;99.90;;;;;;4958450;28;20171;-74
2023/02/13 00:43:56;;;;;;;11.70;8.80;;;11.30;99.90;;;;;;4975641;28;20171;-75
2023/02/13 00:46:22;;;;;;;14.00;9.43;;;11.20;99.90;;;;;;4942153;28;20215;-75
2023/02/13 00:48:47;;;;;;;13.07;9.27;;;11.20;99.90;;;;;;4975742;28;20183;-74
2023/02/13 00:51:13;;;;;;;10.70;8.50;;;11.20;99.90;;;;;;4957409;28;20230;-74
2023/02/13 00:53:39;;;;;;;11.30;8.23;;;11.20;99.90;;;;;;4973492;28;20592;-73
2023/02/13 00:56:06;;;;;;;14.20;9.00;;;11.20;99.90;;;;;;4973659;28;20634;-73
2023/02/13 00:58:32;;;;;;;11.07;8.32;;;11.20;99.90;;;;;;4956767;28;20640;-74
2023/02/13 01:00:58;;;;;;;12.77;8.90;;;11.10;99.90;;;;;;4974615;28;20183;-73
2023/02/13 01:03:24;;;;;;;11.70;9.55;;;11.20;99.90;;;;;;4940945;28;20176;-73
2023/02/13 01:05:51;;;;;;;11.85;8.32;;;11.20;99.90;;;;;;4956596;28;20219;-73
2023/02/13 01:08:18;;;;;;;10.63;8.52;;;11.20;99.90;;;;;;4941118;28;20175;-73
2023/02/13 01:10:47;;;;;;;12.10;9.43;;;11.20;99.90;;;;;;4956987;28;20199;-73
2023/02/13 01:13:15;;;;;;;10.55;8.00;;;11.20;99.90;;;;;;4974342;28;20171;-73
2023/02/13 01:15:41;;;;;;;11.15;9.00;;;11.20;99.90;;;;;;4972896;28;20679;-74
2023/02/13 01:18:06;;;;;;;10.93;8.00;;;11.20;99.90;;;;;;4974376;28;20209;-73
2023/02/13 01:20:33;;;;;;;9.25;7.43;;;11.10;99.90;;;;;;4956649;28;20179;-73
2023/02/13 01:22:59;;;;;;;9.93;7.43;;;11.10;99.90;;;;;;4972458;28;20191;-73
2023/02/13 01:25:24;;;;;;;9.37;7.57;;;11.20;99.90;;;;;;4955965;28;20230;-73
2023/02/13 01:27:50;;;;;;;11.60;8.20;;;11.10;99.90;;;;;;4974037;28;20316;-73
2023/02/13 01:30:17;;;;;;;7.75;6.43;;;11.10;99.90;;;;;;4956713;28;20534;-73
2023/02/13 01:32:44;;;;;;;9.10;7.35;;;11.20;99.90;;;;;;4955878;28;20208;-73
2023/02/13 01:35:13;;;;;;;11.10;7.90;;;11.20;99.90;;;;;;4972298;28;20263;-73
2023/02/13 01:37:39;;;;;;;8.27;6.80;;;11.20;99.90;;;;;;4971953;28;20183;-73
2023/02/13 01:40:10;;;;;;;8.90;7.13;;;11.20;99.90;;;;;;4973652;28;20179;-73
2023/02/13 01:42:36;;;;;;;9.32;7.72;;;11.20;99.90;;;;;;4973285;28;20183;-73
2023/02/13 01:45:17;;;;;;;10.03;7.97;;;11.20;99.90;;;;;;4956318;28;20191;-73
2023/02/13 01:47:46;;;;;;;10.68;8.10;;;11.20;99.90;;;;;;4971602;28;20591;-74
2023/02/13 01:50:25;;;;;;;9.52;7.18;;;11.20;99.90;;;;;;4955288;28;20168;-73
2023/02/13 01:52:58;;;;;;;9.60;7.65;;;11.10;99.90;;;;;;4955432;28;20375;-74
2023/02/13 01:55:25;;;;;;;8.57;6.97;;;11.10;99.90;;;;;;4955510;28;20200;-74
2023/02/13 01:58:16;;;;;;;10.75;7.93;;;11.10;99.90;;;;;;4955289;28;20588;-74
2023/02/13 02:00:48;;;;;;;8.63;6.07;;;11.10;99.90;;;;;;4939488;28;20189;-74
2023/02/13 02:03:35;;;;;;;8.23;6.65;;;11.10;99.90;;;;;;4935818;29;20199;-74
2023/02/13 02:06:09;;;;;;;9.15;7.05;;;11.20;99.90;;;;;;4952391;28;20688;-73
2023/02/13 02:08:36;;;;;;;8.23;7.43;;;11.20;99.90;;;;;;4936350;29;20176;-73
2023/02/13 02:11:10;;;;;;;10.90;8.33;;;11.10;99.90;;;;;;4935903;29;20536;-73
2023/02/13 02:13:36;;;;;;;9.45;7.53;;;11.10;99.90;;;;;;4952546;28;20187;-73
2023/02/13 02:16:06;;;;;;;7.25;6.10;;;11.10;99.90;;;;;;4936208;29;20200;-73
2023/02/13 02:18:32;;;;;;;8.43;6.67;;;11.10;99.90;;;;;;4935744;29;20242;-73
2023/02/13 02:21:43;;;;;;;10.03;7.40;;;11.10;99.90;;;;;;4951848;28;20580;-74
2023/02/13 02:24:18;;;;;;;11.15;9.13;;;11.10;99.90;;;;;;4932778;29;20211;-74
2023/02/13 02:27:00;;;;;;;9.13;8.05;;;11.10;99.90;;;;;;4939292;29;20284;-74
2023/02/13 02:29:57;;;;;;;9.85;8.38;;;11.00;99.90;;;;;;4936487;29;20176;-73
2023/02/13 02:32:50;;;;;;;9.90;7.50;;;11.00;99.90;;;;;;4970719;28;20207;-72
2023/02/13 02:35:43;;;;;;;9.85;7.53;;;11.00;99.90;;;;;;4970310;28;20251;-73
2023/02/13 02:38:22;;;;;;;9.20;7.60;;;11.00;99.90;;;;;;4970566;28;20182;-74
2023/02/13 02:41:04;;;;;;;10.80;8.77;;;11.00;99.90;;;;;;4938200;28;20180;-73
2023/02/13 02:43:35;;;;;;;8.88;5.88;;;10.90;99.90;;;;;;4938577;28;20179;-73
2023/02/13 02:46:22;;;;;;;9.40;7.63;;;11.00;99.90;;;;;;4916541;28;1107850;-72
2023/02/13 02:52:08;;;;;;;7.93;7.13;;;10.90;99.90;;;;;;4955608;28;20702;-73
2023/02/13 03:06:13;;;;;;;7.43;6.43;;;11.00;99.90;;;;;;4958259;28;20219;-74
2023/02/13 03:14:25;;;;;;;8.63;6.20;;;10.90;99.90;;;;;;4971128;28;20179;-73
2023/02/13 03:23:22;;;;;;;8.68;7.40;;;11.00;99.90;;;;;;4975185;28;20258;-74
2023/02/13 03:26:44;;;;;;;11.48;8.73;;;11.00;99.90;;;;;;4942648;28;20619;-74
2023/02/13 03:32:54;;;;;;;10.23;9.07;;;10.90;99.90;;;;;;4976717;28;20266;-74
2023/02/13 03:38:51;;;;;;;11.90;7.85;;;10.80;99.90;;;;;;4975867;28;20579;-73
2023/02/13 03:41:27;;;;;;;12.27;7.57;;;10.80;99.90;;;;;;4974146;28;20183;-74
2023/02/13 03:44:19;;;;;;;8.48;6.97;;;10.80;99.90;;;;;;4958845;28;20183;-74
2023/02/13 03:46:49;;;;;;;9.00;7.95;;;10.70;99.90;;;;;;4958492;28;20270;-74
2023/02/13 03:52:45;;;;;;;9.95;8.57;;;10.80;99.90;;;;;;4974730;28;20171;-74
2023/02/13 04:01:03;;;;;;;8.32;7.38;;;10.70;99.90;;;;;;4975545;28;20179;-73
2023/02/13 04:03:53;;;;;;;9.15;7.88;;;10.70;99.90;;;;;;4975943;28;20164;-73
2023/02/13 04:06:26;;;;;;;8.65;7.30;;;10.60;99.90;;;;;;4952752;29;20219;-73
2023/02/13 04:08:52;;;;;;;9.55;7.47;;;10.60;99.90;;;;;;4939791;29;20184;-74
2023/02/13 04:11:31;;;;;;;12.10;9.80;;;10.60;99.90;;;;;;4957129;28;20169;-74
2023/02/13 04:14:06;;;;;;;9.48;8.45;;;10.60;99.90;;;;;;4957235;28;20173;-74
2023/02/13 04:16:34;;;;;;;10.45;8.35;;;10.60;99.90;;;;;;4955627;29;20599;-74
2023/02/13 04:19:00;;;;;;;10.10;9.10;;;10.60;99.90;;;;;;4956661;28;20191;-73
2023/02/13 04:21:31;;;;;;;11.50;9.63;;;10.50;99.90;;;;;;4956459;28;20168;-74
2023/02/13 04:23:56;;;;;;;9.93;8.48;;;10.50;99.90;;;;;;4956349;28;20318;-74
2023/02/13 04:26:23;;;;;;;9.83;8.80;;;10.50;99.90;;;;;;4956221;28;20295;-74
2023/02/13 04:28:48;;;;;;;8.30;7.13;;;10.50;99.90;;;;;;4956103;28;20168;-73
2023/02/13 04:31:14;;;;;;;10.57;8.57;;;10.40;99.90;;;;;;4955777;28;20219;-74
2023/02/13 04:33:40;;;;;;;12.00;10.13;;;10.40;99.90;;;;;;4955759;28;20227;-73
2023/02/13 04:36:06;;;;;;;11.00;9.87;;;10.40;99.90;;;;;;4954922;28;20620;-73
2023/02/13 04:38:32;;;;;;;12.83;10.33;;;10.40;99.90;;;;;;4954959;29;20575;-73
2023/02/13 04:40:57;;;;;;;12.33;9.70;;;10.40;99.90;;;;;;4954221;28;20584;-73
2023/02/13 04:43:24;;;;;;;11.67;10.47;;;10.40;99.90;;;;;;4938218;29;20231;-74
2023/02/13 04:45:50;;;;;;;10.48;9.38;;;10.40;99.90;;;;;;4955465;28;20582;-74
2023/02/13 04:48:16;;;;;;;13.32;10.82;;;10.30;99.90;;;;;;4954222;28;20177;-73
2023/02/13 04:50:42;;;;;;;9.40;8.40;;;10.30;99.90;;;;;;4954889;28;20170;-73
2023/02/13 04:53:08;;;;;;;12.43;9.13;;;10.30;99.90;;;;;;4954326;29;20263;-74
2023/02/13 04:55:34;;;;;;;12.00;9.97;;;10.20;99.90;;;;;;4953620;28;20207;-73
2023/02/13 04:57:59;;;;;;;11.85;9.93;;;10.20;99.90;;;;;;4954091;28;20244;-73
2023/02/13 05:00:27;;;;;;;9.60;8.43;;;10.20;99.90;;;;;;4957475;28;20184;-74
2023/02/13 05:02:53;;;;;;;10.35;8.75;;;10.20;99.90;;;;;;4954979;28;20181;-73
2023/02/13 05:05:19;;;;;;;10.75;9.23;;;10.10;99.90;;;;;;4954310;29;20579;-74
2023/02/13 05:07:45;;;;;;;11.55;9.90;;;10.10;99.90;;;;;;4957057;28;20180;-74
2023/02/13 05:10:11;;;;;;;11.43;9.60;;;10.10;99.90;;;;;;4955605;28;20164;-74
2023/02/13 05:12:37;;;;;;;11.30;9.52;;;10.10;99.90;;;;;;4955056;28;20180;-74
2023/02/13 05:15:04;;;;;;;13.57;10.90;;;10.00;99.90;;;;;;4957498;28;20711;-73
2023/02/13 05:17:30;;;;;;;13.57;9.85;;;10.00;99.90;;;;;;4972583;28;20260;-72
2023/02/13 05:19:56;;;;;;;15.17;11.40;;;9.90;99.90;;;;;;4960558;28;20202;-74
2023/02/13 05:25:06;;;;;;;12.68;10.10;;;9.80;99.90;;;;;;4998842;28;20613;-74
2023/02/13 05:27:32;;;;;;;10.47;8.57;;;9.80;99.90;;;;;;4976649;28;20542;-73
2023/02/13 05:29:57;;;;;;;14.50;10.80;;;9.70;99.90;;;;;;4984135;28;20582;-74
2023/02/13 05:32:23;;;;;;;13.00;9.57;;;9.70;99.90;;;;;;4993064;28;20278;-74
2023/02/13 05:34:48;;;;;;;12.10;10.00;;;9.70;99.90;;;;;;4993376;28;20278;-73
2023/02/13 05:37:14;;;;;;;14.40;10.80;;;9.60;99.90;;;;;;4992783;28;20221;-74
2023/02/13 05:39:40;;;;;;;11.07;8.93;;;9.60;99.90;;;;;;4995276;28;20179;-75
2023/02/13 05:42:06;;;;;;;14.30;9.83;;;9.60;99.90;;;;;;4996350;28;20203;-75
2023/02/13 05:44:32;;;;;;;13.80;11.00;;;9.50;99.90;;;;;;4995924;28;20191;-74
2023/02/13 05:46:57;;;;;;;14.45;10.30;;;9.50;99.90;;;;;;4993525;28;20242;-74
2023/02/13 05:49:23;;;;;;;13.40;10.30;;;9.50;99.90;;;;;;4991681;28;20186;-74
2023/02/13 05:51:51;;;;;;;13.47;10.60;;;9.40;99.90;;;;;;4976145;28;20178;-73
2023/02/13 05:54:17;;;;;;;10.85;8.27;;;9.40;99.90;;;;;;4992724;28;20533;-74
2023/02/13 05:56:43;;;;;;;12.70;9.45;;;9.40;99.90;;;;;;4976472;28;20221;-74
2023/02/13 05:59:12;;;;;;;12.23;9.88;;;9.40;99.90;;;;;;4993842;28;20179;-74
2023/02/13 06:01:37;;;;;;;11.43;9.10;;;9.30;99.90;;;;;;4994749;28;20171;-74
2023/02/13 06:04:03;;;;;;;13.10;10.10;;;9.30;99.90;;;;;;4993761;28;20238;-74
2023/02/13 06:06:29;;;;;;;14.20;10.63;;;9.30;99.90;;;;;;4978047;28;20206;-73
2023/02/13 06:08:55;;;;;;;12.70;9.03;;;9.30;99.90;;;;;;4997997;28;20580;-74
2023/02/13 06:11:22;;;;;;;11.77;9.30;;;9.20;99.90;;;;;;4997212;28;20163;-74
2023/02/13 06:13:47;;;;;;;13.77;11.18;;;9.20;99.90;;;;;;4996866;28;20171;-74
2023/02/13 06:16:13;;;;;;;10.93;8.47;;;9.20;99.90;;;;;;4977219;28;20205;-74
2023/02/13 06:18:39;;;;;;;15.37;12.03;;;9.20;99.90;;;;;;4979971;28;20182;-74
2023/02/13 06:21:06;;;;;;;13.17;8.47;;;9.10;99.90;;;;;;4977771;28;20202;-74
2023/02/13 06:23:31;;;;;;;11.65;9.00;;;9.10;99.90;;;;;;4975679;28;20660;-74
2023/02/13 06:26:02;;;;;;;16.83;11.20;;;9.10;99.90;;;;;;4975069;28;20218;-74
2023/02/13 06:28:28;;;;;;;12.70;10.80;;;9.10;99.90;;;;;;4975490;28;20582;-74
2023/02/13 06:30:54;;;;;;;13.43;11.07;;;9.00;99.90;;;;;;4991105;28;20332;-74
2023/02/13 06:33:19;;;;;;;16.07;12.17;;;9.00;99.90;;;;;;4993158;28;20524;-74
2023/02/13 06:35:45;;;;;;;13.30;10.60;;;9.00;99.90;;;;;;4992100;28;20195;-74
2023/02/13 06:38:11;;;;;;;14.30;10.43;;;9.00;99.90;;;;;;4993843;28;20170;-73
2023/02/13 06:40:36;;;;;;;12.77;8.80;;;9.00;99.90;;;;;;4992420;28;20186;-74
2023/02/13 06:43:02;;;;;;;15.57;10.97;;;9.00;99.90;;;;;;4976197;28;20273;-74
2023/02/13 06:45:28;;;;;;;11.23;8.70;;;8.90;99.90;;;;;;4975174;28;20219;-76
2023/02/13 06:47:53;;;;;;;11.63;9.03;;;8.90;99.90;;;;;;4974271;28;20999;-76
2023/02/13 06:50:19;;;;;;;11.37;8.80;;;8.90;99.90;;;;;;4974325;28;20171;-76
2023/02/13 06:52:49;;;;;;;10.77;8.35;;;8.90;99.90;;;;;;4972943;28;20685;-76
2023/02/13 06:55:16;;;;;;;10.77;9.13;;;8.90;99.90;;;;;;4974262;28;20193;-76
2023/02/13 06:57:43;;;;;;;12.40;10.20;;;8.90;99.90;;;;;;4977063;28;20535;-74
2023/02/13 07:00:12;;;;;;;12.07;9.30;;;8.90;99.90;;;;;;4992280;28;20249;-73
2023/02/13 07:02:39;;;;;;;11.60;10.27;;;8.90;99.90;;;;;;4978357;28;20178;-73
2023/02/13 07:05:06;;;;;;;13.75;10.63;;;8.90;99.90;;;;;;4958728;28;20262;-73
2023/02/13 07:07:33;;;;;;;13.23;9.57;;;8.80;99.90;;;;;;4975065;28;20605;-73
2023/02/13 07:09:59;;;;;;;11.60;9.95;;;8.80;99.90;;;;;;4976061;28;20179;-73
2023/02/13 07:12:25;;;;;;;13.23;9.95;;;8.90;99.90;;;;;;4976272;28;20557;-71
2023/02/13 07:14:50;;;;;;;9.80;8.27;;;8.90;99.90;;;;;;4977547;28;20260;-73
2023/02/13 07:17:16;;;;;;;12.80;10.07;;;8.90;99.90;;;;;;4995396;28;20202;-73
2023/02/13 07:19:42;;;;;;;12.67;10.70;;;8.90;99.90;;;;;;4995274;28;20179;-73
2023/02/13 07:22:07;;;;;;;9.43;8.23;;;8.90;99.90;;;;;;4994233;28;20183;-73
2023/02/13 07:24:34;;;;;;;10.97;7.80;;;8.90;99.90;;;;;;4995421;28;20290;-73
2023/02/13 07:27:00;;;;;;;9.25;7.35;;;8.90;99.90;;;;;;4985221;28;20207;-74
2023/02/13 07:29:27;;;;;;;11.75;9.48;;;9.00;99.90;;;;;;4960653;28;20506;-78
2023/02/13 07:31:52;;;;;;;9.80;8.33;;;9.00;99.90;;;;;;4966702;28;20208;-78
2023/02/13 07:34:18;;;;;;;11.80;9.10;;;8.90;99.90;;;;;;4972587;28;20167;-79
2023/02/13 07:36:44;;;;;;;10.57;8.80;;;9.00;99.90;;;;;;4974769;28;20195;-79
2023/02/13 07:39:09;;;;;;;13.93;10.53;;;9.00;99.90;;;;;;4966049;28;20191;-78
2023/02/13 07:41:35;;;;;;;12.97;9.70;;;9.00;99.90;;;;;;4987303;28;20587;-78
2023/02/13 07:44:01;;;;;;;13.40;10.00;;;9.00;99.90;;;;;;4987627;28;20721;-78
2023/02/13 07:46:27;;;;;;;8.57;7.27;;;9.00;99.90;;;;;;4981632;28;20211;-78
2023/02/13 07:48:53;;;;;;;12.20;9.70;;;9.00;99.90;;;;;;4974277;28;20702;-78
2023/02/13 07:51:19;;;;;;;13.05;9.60;;;9.10;99.90;;;;;;4957368;28;20188;-74
2023/02/13 07:53:45;;;;;;;12.77;9.15;;;9.10;99.90;;;;;;4941190;28;20171;-74
2023/02/13 07:56:10;;;;;;;12.97;10.40;;;9.10;99.90;;;;;;4957750;28;20206;-74
2023/02/13 07:58:39;;;;;;;9.43;8.20;;;9.10;99.90;;;;;;4974736;28;20544;-74
2023/02/13 08:01:06;;;;;;;11.73;8.85;;;9.10;99.90;;;;;;4974647;28;20582;-74
2023/02/13 08:03:33;;;;;;;10.05;8.45;;;9.10;99.90;;;;;;4970086;28;20282;-73
2023/02/13 08:05:58;;;;;;;12.57;9.60;;;9.20;99.90;;;;;;4976674;28;20273;-73
2023/02/13 08:08:24;;;;;;;14.30;8.90;;;9.20;99.90;;;;;;4976975;28;20171;-73
2023/02/13 08:13:36;;;;;;;13.82;11.00;;;9.20;99.90;;;;;;4971950;28;20184;-75
2023/02/13 08:16:02;;;;;;;12.88;10.57;;;9.30;99.90;;;;;;4977932;28;20214;-75
2023/02/13 08:18:28;;;;;;;10.55;8.40;;;9.30;99.90;;;;;;4976017;28;20643;-75
2023/02/13 08:20:53;;;;;;;11.60;8.97;;;9.40;99.90;;;;;;4964665;28;20222;-75
2023/02/13 08:23:19;;;;;;;12.23;10.13;;;9.40;99.90;;;;;;4959501;28;20206;-75
2023/02/13 08:25:46;;;;;;;12.97;10.53;;;9.50;99.90;;;;;;4973944;28;20207;-75
2023/02/13 08:28:12;;;;;;;11.10;9.35;;;9.50;99.90;;;;;;4982144;28;20262;-75
2023/02/13 08:30:38;;;;;;;9.37;7.93;;;9.50;99.90;;;;;;4957061;28;20251;-76
2023/02/13 08:33:03;;;;;;;14.37;10.90;;;9.60;99.90;;;;;;4973390;28;20261;-75
2023/02/13 08:35:30;;;;;;;11.27;8.87;;;9.70;99.90;;;;;;4972850;28;20206;-75
2023/02/13 08:37:59;;;;;;;13.57;12.15;;;9.70;99.90;;;;;;4956901;28;20636;-76
2023/02/13 08:40:25;;;;;;;12.25;8.80;;;9.80;99.90;;;;;;4972349;28;20221;-76
2023/02/13 08:42:51;;;;;;;9.40;8.10;;;9.80;99.90;;;;;;4972897;28;20179;-75
2023/02/13 08:45:17;;;;;;;8.90;7.73;;;9.90;99.90;;;;;;4940997;28;20207;-75
2023/02/13 08:47:42;;;;;;;10.57;8.80;;;10.00;99.90;;;;;;4956642;28;20270;-75
2023/02/13 08:50:08;;;;;;;9.73;8.53;;;10.10;99.90;;;;;;4956951;28;20226;-76
2023/02/13 08:52:34;;;;;;;13.30;10.52;;;10.20;99.90;;;;;;4956289;28;20209;-74
2023/02/13 08:55:02;;;;;;;10.25;9.00;;;10.20;99.90;;;;;;4973355;28;20184;-75
2023/02/13 08:57:28;;;;;;;11.05;9.43;;;10.30;99.90;;;;;;4957715;28;20310;-75
2023/02/13 08:59:53;;;;;;;11.57;8.40;;;10.40;99.90;;;;;;4974003;28;20258;-75
2023/02/13 09:02:19;;;;;;;11.07;8.50;;;10.50;99.90;;;;;;4971909;28;20191;-75
2023/02/13 09:04:45;;;;;;;11.70;9.30;;;10.60;99.90;;;;;;4972533;28;20319;-75
2023/02/13 09:07:11;;;;;;;15.00;11.20;;;11.10;99.90;;;;;;4973784;28;20608;-75
2023/02/13 09:09:37;;;;;;;13.00;10.57;;;11.60;99.90;;;;;;4973740;28;20235;-74
2023/02/13 09:12:03;;;;;;;12.13;10.50;;;12.40;99.90;;;;;;4975736;28;20579;-74
2023/02/13 09:14:29;;;;;;;11.87;9.80;;;13.10;99.90;;;;;;4978138;28;21314;-75
2023/02/13 09:16:54;;;;;;;9.07;7.70;;;13.60;99.90;;;;;;4954845;28;20673;-75
2023/02/13 09:19:20;;;;;;;13.27;9.77;;;14.10;99.90;;;;;;4970646;28;20171;-75
2023/02/13 09:21:46;;;;;;;9.90;8.60;;;14.90;99.90;;;;;;4984735;28;20605;-75
2023/02/13 09:24:11;;;;;;;7.93;7.13;;;15.40;99.90;;;;;;4954709;28;20187;-74
2023/02/13 09:26:37;;;;;;;10.23;8.70;;;15.90;99.90;;;;;;4962738;28;20274;-75
2023/02/13 09:29:03;;;;;;;9.93;8.93;;;16.30;99.90;;;;;;4982697;28;20175;-75
2023/02/13 09:31:29;;;;;;;9.07;7.30;;;16.50;99.90;;;;;;4966772;28;20698;-74
2023/02/13 09:33:55;;;;;;;10.40;8.40;;;16.80;99.90;;;;;;4973491;28;21119;-74
2023/02/13 09:36:23;;;;;;;8.67;7.20;;;17.00;99.90;;;;;;4955777;28;20199;-73
2023/02/13 09:38:53;;;;;;;10.53;9.50;;;17.00;99.90;;;;;;4971972;28;20626;-74
2023/02/13 09:41:33;;;;;;;8.73;7.83;;;17.00;99.90;;;;;;4971858;28;20609;-75
2023/02/13 09:44:03;;;;;;;9.07;7.43;;;17.40;99.90;;;;;;4954897;28;20575;-75
2023/02/13 09:46:33;;;;;;;8.20;7.40;;;17.70;99.90;;;;;;4954623;28;20721;-73
2023/02/13 09:49:04;;;;;;;8.93;8.03;;;18.20;99.90;;;;;;4971899;28;20590;-74
2023/02/13 09:51:30;;;;;;;8.57;7.33;;;18.30;99.90;;;;;;4954407;28;20916;-74
2023/02/13 09:54:00;;;;;;;9.90;7.90;;;18.50;99.90;;;;;;4971850;28;20598;-73
2023/02/13 09:56:36;;;;;;;9.47;7.53;;;18.70;99.90;;;;;;4971648;28;20349;-73
2023/02/13 09:59:15;;;;;;;8.43;7.63;;;18.90;99.90;;;;;;4972582;28;20587;-73
2023/02/13 10:01:46;;;;;;;8.00;7.20;;;19.10;99.90;;;;;;4970136;28;20597;-74
2023/02/13 10:04:35;;;;;;;7.47;6.70;;;19.50;99.90;;;;;;4972658;28;20936;-74
2023/02/13 10:07:19;;;;;;;6.93;6.23;;;19.90;99.90;;;;;;4954537;28;20638;-74
2023/02/13 10:10:26;;;;;;;7.90;7.10;;;20.30;96.10;;;;;;4969966;28;20642;-75
2023/02/13 10:12:51;;;;;;;8.70;7.87;;;20.50;99.90;;;;;;4970010;28;20595;-74
2023/02/13 10:15:45;;;;;;;7.30;5.80;;;20.40;98.60;;;;;;4971575;28;20606;-75
2023/02/13 10:18:20;;;;;;;6.33;5.43;;;20.40;99.90;;;;;;4971292;28;20190;-75
2023/02/13 10:20:53;;;;;;;9.30;7.80;;;20.70;99.90;;;;;;4971163;28;20625;-74
2023/02/13 10:23:43;;;;;;;6.57;5.97;;;20.60;98.30;;;;;;4953694;28;20607;-74
2023/02/13 10:26:44;;;;;;;8.50;6.27;;;20.60;99.00;;;;;;4954614;28;20736;-74
2023/02/13 10:32:15;;;;;;;10.17;6.80;;;20.60;97.90;;;;;;4953531;28;20648;-75
2023/02/13 10:34:44;;;;;;;7.27;5.90;;;20.60;96.80;;;;;;4973456;28;20594;-72
2023/02/13 10:37:20;;;;;;;6.80;6.00;;;20.50;94.80;;;;;;4979519;28;20650;-73
2023/02/13 10:39:48;;;;;;;6.00;5.10;;;20.40;98.10;;;;;;4963906;28;20594;-76
2023/02/13 10:42:40;;;;;;;6.93;6.23;;;20.40;94.90;;;;;;4961095;28;20583;-76
2023/02/13 10:45:21;;;;;;;9.20;6.20;;;20.20;94.40;;;;;;4924460;28;20674;-76
2023/02/13 10:48:05;;;;;;;7.93;6.20;;;20.00;97.20;;;;;;4954877;28;20587;-75
2023/02/13 10:50:54;;;;;;;7.50;6.33;;;19.90;95.90;;;;;;4954179;28;20575;-75
2023/02/13 10:53:42;;;;;;;7.60;5.90;;;20.00;98.00;;;;;;4970256;28;20579;-75
2023/02/13 10:56:17;;;;;;;6.30;4.97;;;20.10;96.60;;;;;;4955686;28;21202;-75
2023/02/13 10:58:57;;;;;;;7.13;5.83;;;20.30;99.10;;;;;;4969802;28;20602;-75
2023/02/13 11:02:01;;;;;;;6.30;5.00;;;20.50;99.50;;;;;;4950301;28;20564;-75
2023/02/13 11:04:28;;;;;;;6.50;5.57;;;20.80;98.80;;;;;;4973242;28;20653;-76
2023/02/13 11:06:59;;;;;;;7.70;6.40;;;21.00;98.60;;;;;;4972680;28;20654;-75
2023/02/13 11:09:25;;;;;;;5.50;5.00;;;21.00;92.40;;;;;;4975297;28;20599;-75
2023/02/13 11:11:52;;;;;;;7.93;6.50;;;20.90;96.30;;;;;;4970054;28;20585;-75
2023/02/13 11:14:25;;;;;;;6.30;4.90;;;20.80;94.20;;;;;;4972724;28;20576;-75
2023/02/13 11:17:11;;;;;;;5.93;5.33;;;20.60;94.90;;;;;;4969775;28;20642;-74
2023/02/13 11:19:47;;;;;;;5.93;4.40;;;20.50;92.50;;;;;;4971038;28;20650;-74
2023/02/13 11:22:25;;;;;;;7.20;5.97;;;20.40;92.40;;;;;;4953017;28;20602;-73
2023/02/13 11:24:55;;;;;;;6.37;5.50;;;20.30;92.90;;;;;;4969414;28;20641;-73
2023/02/13 11:27:29;;;;;;;5.90;5.10;;;20.10;92.90;;;;;;4953912;28;21240;-72
2023/02/13 11:30:19;;;;;;;6.67;4.60;;;19.70;91.80;;;;;;4953932;28;20582;-74
2023/02/13 11:33:02;;;;;;;7.07;5.57;;;19.30;89.40;;;;;;4950686;28;20591;-74
2023/02/13 11:35:31;;;;;;;5.20;4.00;;;19.00;91.90;;;;;;4943622;28;20650;-74
2023/02/13 11:38:08;;;;;;;7.70;6.20;;;18.80;93.00;;;;;;4976873;28;20661;-74
2023/02/13 11:40:36;;;;;;;5.40;4.87;;;18.50;92.20;;;;;;4979141;28;20585;-74
2023/02/13 11:43:05;;;;;;;9.50;4.33;;;18.10;91.90;;;;;;4952691;28;20591;-74
2023/02/13 11:45:31;;;;;;;5.93;4.80;;;17.80;92.10;;;;;;4970670;28;20650;-74
2023/02/13 11:47:57;;;;;;;6.97;6.27;;;17.40;92.10;;;;;;4963582;28;20655;-74
2023/02/13 11:50:36;;;;;;;5.37;4.57;;;17.20;92.40;;;;;;4957247;28;20936;-74
2023/02/13 11:53:14;;;;;;;7.37;5.60;;;16.90;92.70;;;;;;4973986;28;20183;-74
2023/02/13 11:55:41;;;;;;;6.20;4.70;;;16.50;92.20;;;;;;4944512;28;21224;-74
2023/02/13 11:58:10;;;;;;;7.33;5.80;;;16.40;92.90;;;;;;4977401;28;20661;-74
2023/02/13 12:00:41;;;;;;;6.73;5.00;;;15.90;92.30;;;;;;4961384;28;21139;-74
2023/02/13 12:03:27;;;;;;;5.60;4.33;;;15.80;93.30;;;;;;4943205;28;20657;-73
2023/02/13 12:06:02;;;;;;;6.60;4.70;;;15.70;94.00;;;;;;4978953;28;20673;-73
2023/02/13 12:08:30;;;;;;;5.60;4.03;;;15.50;93.90;;;;;;4960939;28;20669;-73
2023/02/13 12:10:58;;;;;;;6.87;4.37;;;15.50;94.60;;;;;;4961856;28;20583;-73
2023/02/13 12:13:40;;;;;;;6.43;4.40;;;15.40;94.80;;;;;;4960050;28;20593;-73
2023/02/13 12:16:29;;;;;;;8.00;4.40;;;15.40;95.40;;;;;;4960014;28;20628;-73
2023/02/13 12:18:58;;;;;;;5.87;4.67;;;15.40;95.80;;;;;;4958651;28;20646;-74
2023/02/13 12:21:46;;;;;;;5.90;4.97;;;15.50;95.80;;;;;;4959050;28;20653;-74
2023/02/13 12:24:25;;;;;;;5.40;4.33;;;15.30;95.00;;;;;;4976297;28;20575;-74
2023/02/13 12:27:20;;;;;;;7.70;5.00;;;15.30;96.00;;;;;;4977652;28;20646;-74
2023/02/13 12:30:09;;;;;;;5.00;3.67;;;15.20;95.80;;;;;;4971017;28;20591;-74
2023/02/13 12:32:44;;;;;;;7.03;5.20;;;15.20;95.50;;;;;;4959849;28;20585;-73
2023/02/13 12:35:15;;;;;;;5.40;4.13;;;15.10;96.10;;;;;;4943932;28;20590;-73
2023/02/13 12:38:16;;;;;;;7.17;5.50;;;15.10;96.60;;;;;;4958958;28;20587;-73
2023/02/13 12:41:04;;;;;;;4.50;3.47;;;15.10;96.40;;;;;;4970242;28;20598;-74
2023/02/13 12:43:50;;;;;;;5.60;4.30;;;15.10;96.50;;;;;;4959663;28;20628;-74
2023/02/13 12:46:34;;;;;;;6.30;4.13;;;15.10;96.10;;;;;;4973943;28;20634;-74
2023/02/13 12:49:18;;;;;;;5.20;4.23;;;15.10;96.80;;;;;;4975493;28;20702;-74
2023/02/13 12:52:02;;;;;;;4.60;3.70;;;15.00;96.20;;;;;;4974709;28;20563;-73
2023/02/13 12:54:57;;;;;;;5.03;2.97;;;15.10;96.80;;;;;;4976639;28;20677;-74
2023/02/13 12:57:41;;;;;;;3.53;2.90;;;15.10;97.20;;;;;;4955773;28;20619;-73
2023/02/13 13:00:39;;;;;;;4.30;3.10;;;15.10;97.20;;;;;;4974473;28;20582;-73
2023/02/13 13:03:04;;;;;;;3.67;3.20;;;15.20;97.50;;;;;;4974149;28;20586;-73
2023/02/13 13:05:46;;;;;;;5.00;3.47;;;15.20;97.40;;;;;;4957738;28;20655;-74
2023/02/13 13:08:38;;;;;;;4.93;2.80;;;15.20;97.20;;;;;;4957210;28;20171;-74
2023/02/13 13:11:33;;;;;;;4.50;2.90;;;15.20;96.50;;;;;;4975082;28;20575;-74
2023/02/13 13:14:26;;;;;;;5.60;3.67;;;15.30;97.00;;;;;;4974336;28;20598;-74
2023/02/13 13:17:03;;;;;;;5.87;3.47;;;15.30;97.30;;;;;;4974825;28;20612;-75
2023/02/13 13:20:00;;;;;;;4.80;3.00;;;15.40;97.50;;;;;;4956859;28;20583;-74
2023/02/13 13:22:57;;;;;;;4.17;3.07;;;15.40;97.40;;;;;;4956772;28;20642;-73
2023/02/13 13:25:37;;;;;;;4.03;2.73;;;15.40;97.30;;;;;;4973115;28;20642;-73
2023/02/13 13:28:13;;;;;;;5.20;3.37;;;15.50;97.60;;;;;;4974499;28;20945;-73
2023/02/13 13:30:41;;;;;;;4.67;2.37;;;15.50;96.90;;;;;;4973808;28;20579;-73
2023/02/13 13:33:09;;;;;;;8.00;3.00;;;15.60;97.30;;;;;;4956405;28;20586;-73
2023/02/13 13:35:38;;;;;;;3.10;1.83;;;15.60;96.80;;;;;;4956072;28;20621;-73
2023/02/13 13:38:13;;;;;;;2.97;1.67;;;15.60;97.00;;;;;;4940649;28;21167;-74
2023/02/13 13:40:55;;;;;;;5.43;2.17;;;15.70;97.20;;;;;;4940633;28;20687;-74
2023/02/13 13:43:27;;;;;;;4.37;1.80;;;15.70;95.10;;;;;;4956448;28;20590;-73
2023/02/13 13:46:29;;;;;;;3.20;1.57;;;15.60;95.30;;;;;;4972731;28;21124;-73
2023/02/13 13:49:15;;;;;;;3.23;2.03;;;15.70;95.20;;;;;;4953631;28;20591;-74
2023/02/13 13:51:41;;;;;;;3.40;2.10;;;15.70;95.80;;;;;;4952619;28;20601;-74
2023/02/13 13:54:07;;;;;;;2.10;1.67;;;15.80;95.80;;;;;;4975008;28;20595;-75
2023/02/13 13:56:51;;;;;;;3.57;1.60;;;15.80;95.50;;;;;;4957578;28;20299;-73